sensor_id;sensor_type;location;lat;lon;timestamp;temperature;humidity
78902;DHT22;70441;44.758;37.686;2024-01-15T00:00:01;6.17;66.24
78902;DHT22;70441;44.758;37.686;2024-01-15T00:01:13;6.13;66.51
78902;DHT22;70441;44.758;37.686;2024-01-15T00:02:14;6.10;67.39
78902;DHT22;70441;44.758;37.686;2024-01-15T00:03:16;6.07;67.76
78902;DHT22;70441;44.758;37.686;2024-01-15T00:04:18;6.03;67.09
78902;DHT22;70441;44.758;37.686;2024-01-15T00:05:20;6.03;67.68
78902;DHT22;70441;44.758;37.686;2024-01-15T00:06:21;5.98;68.29
78902;DHT22;70441;44.758;37.686;2024-01-15T00:07:23;5.97;67.85
78902;DHT22;70441;44.758;37.686;2024-01-15T00:09:45;5.93;66.91
78902;DHT22;70441;44.758;37.686;2024-01-15T00:10:46;5.96;67.49
78902;DHT22;70441;44.758;37.686;2024-01-15T00:11:48;5.91;68.48
78902;DHT22;70441;44.758;37.686;2024-01-15T00:13:08;5.89;69.15
78902;DHT22;70441;44.758;37.686;2024-01-15T00:14:10;5.86;69.17
78902;DHT22;70441;44.758;37.686;2024-01-15T00:15:11;5.81;69.76
78902;DHT22;70441;44.758;37.686;2024-01-15T00:16:13;5.85;69.64
78902;DHT22;70441;44.758;37.686;2024-01-15T00:17:15;5.81;69.40
78902;DHT22;70441;44.758;37.686;2024-01-15T00:18:16;5.85;69.43
78902;DHT22;70441;44.758;37.686;2024-01-15T00:19:18;5.81;70.21
78902;DHT22;70441;44.758;37.686;2024-01-15T00:20:20;5.81;70.16
78902;DHT22;70441;44.758;37.686;2024-01-15T00:21:21;5.83;70.18
78902;DHT22;70441;44.758;37.686;2024-01-15T00:22:25;5.81;70.84
78902;DHT22;70441;44.758;37.686;2024-01-15T00:23:27;5.83;70.93
78902;DHT22;70441;44.758;37.686;2024-01-15T00:24:29;5.83;70.62
78902;DHT22;70441;44.758;37.686;2024-01-15T00:25:31;5.79;71.33
78902;DHT22;70441;44.758;37.686;2024-01-15T00:26:33;5.76;72.03
78902;DHT22;70441;44.758;37.686;2024-01-15T00:27:54;5.70;72.09
78902;DHT22;70441;44.758;37.686;2024-01-15T00:28:55;5.69;72.42
78902;DHT22;70441;44.758;37.686;2024-01-15T00:29:57;5.67;72.61
78902;DHT22;70441;44.758;37.686;2024-01-15T00:30:59;5.67;72.04
78902;DHT22;70441;44.758;37.686;2024-01-15T00:32:01;5.70;72.38
78902;DHT22;70441;44.758;37.686;2024-01-15T00:33:03;5.70;72.47
78902;DHT22;70441;44.758;37.686;2024-01-15T00:34:23;5.69;72.89
78902;DHT22;70441;44.758;37.686;2024-01-15T00:35:25;5.66;73.35
78902;DHT22;70441;44.758;37.686;2024-01-15T00:36:26;5.66;73.86
78902;DHT22;70441;44.758;37.686;2024-01-15T00:37:28;5.66;73.91
78902;DHT22;70441;44.758;37.686;2024-01-15T00:38:29;5.66;73.36
78902;DHT22;70441;44.758;37.686;2024-01-15T00:39:49;5.72;72.97
78902;DHT22;70441;44.758;37.686;2024-01-15T00:41:09;5.76;73.40
78902;DHT22;70441;44.758;37.686;2024-01-15T00:42:10;5.76;73.26
78902;DHT22;70441;44.758;37.686;2024-01-15T00:43:12;5.79;73.41
78902;DHT22;70441;44.758;37.686;2024-01-15T00:45:52;5.89;72.83
78902;DHT22;70441;44.758;37.686;2024-01-15T00:46:53;5.93;72.30
78902;DHT22;70441;44.758;37.686;2024-01-15T00:47:54;5.91;71.11
78902;DHT22;70441;44.758;37.686;2024-01-15T00:48:57;5.94;69.33
78902;DHT22;70441;44.758;37.686;2024-01-15T00:49:59;5.98;68.94
78902;DHT22;70441;44.758;37.686;2024-01-15T00:51:00;5.98;68.76
78902;DHT22;70441;44.758;37.686;2024-01-15T00:52:20;6.00;69.51
78902;DHT22;70441;44.758;37.686;2024-01-15T00:53:22;6.01;68.54
78902;DHT22;70441;44.758;37.686;2024-01-15T00:54:23;6.03;68.02
78902;DHT22;70441;44.758;37.686;2024-01-15T00:55:25;6.07;66.90
78902;DHT22;70441;44.758;37.686;2024-01-15T00:56:44;6.13;66.46
78902;DHT22;70441;44.758;37.686;2024-01-15T00:57:46;6.14;66.75
78902;DHT22;70441;44.758;37.686;2024-01-15T00:58:47;6.14;66.67
78902;DHT22;70441;44.758;37.686;2024-01-15T00:59:49;6.17;66.02
78902;DHT22;70441;44.758;37.686;2024-01-15T01:01:09;6.20;65.69
78902;DHT22;70441;44.758;37.686;2024-01-15T01:02:28;6.22;65.50
78902;DHT22;70441;44.758;37.686;2024-01-15T01:03:30;6.21;64.29
78902;DHT22;70441;44.758;37.686;2024-01-15T01:04:31;6.24;64.74
78902;DHT22;70441;44.758;37.686;2024-01-15T01:05:34;6.24;64.88
78902;DHT22;70441;44.758;37.686;2024-01-15T01:06:53;6.26;63.80
78902;DHT22;70441;44.758;37.686;2024-01-15T01:09:15;6.25;62.90
78902;DHT22;70441;44.758;37.686;2024-01-15T01:10:16;6.24;62.82
78902;DHT22;70441;44.758;37.686;2024-01-15T01:11:18;6.24;62.36
78902;DHT22;70441;44.758;37.686;2024-01-15T01:12:19;6.25;62.88
78902;DHT22;70441;44.758;37.686;2024-01-15T01:13:21;6.20;62.69
78902;DHT22;70441;44.758;37.686;2024-01-15T01:14:22;6.20;61.71
78902;DHT22;70441;44.758;37.686;2024-01-15T01:15:24;6.24;61.57
78902;DHT22;70441;44.758;37.686;2024-01-15T01:16:44;6.24;61.34
78902;DHT22;70441;44.758;37.686;2024-01-15T01:17:45;6.28;61.41
78902;DHT22;70441;44.758;37.686;2024-01-15T01:18:47;6.29;61.05
78902;DHT22;70441;44.758;37.686;2024-01-15T01:19:49;6.26;60.98
78902;DHT22;70441;44.758;37.686;2024-01-15T01:20:51;6.26;60.43
78902;DHT22;70441;44.758;37.686;2024-01-15T01:21:52;6.29;60.68
78902;DHT22;70441;44.758;37.686;2024-01-15T01:22:56;6.29;61.05
78902;DHT22;70441;44.758;37.686;2024-01-15T01:23:57;6.31;60.32
78902;DHT22;70441;44.758;37.686;2024-01-15T01:24:59;6.31;60.77
78902;DHT22;70441;44.758;37.686;2024-01-15T01:26:00;6.36;60.13
78902;DHT22;70441;44.758;37.686;2024-01-15T01:27:02;6.35;59.66
78902;DHT22;70441;44.758;37.686;2024-01-15T01:28:03;6.33;59.43
78902;DHT22;70441;44.758;37.686;2024-01-15T01:29:05;6.33;59.12
78902;DHT22;70441;44.758;37.686;2024-01-15T01:30:07;6.36;59.30
78902;DHT22;70441;44.758;37.686;2024-01-15T01:31:08;6.33;59.36
78902;DHT22;70441;44.758;37.686;2024-01-15T01:32:10;6.33;59.23
78902;DHT22;70441;44.758;37.686;2024-01-15T01:33:11;6.38;59.06
78902;DHT22;70441;44.758;37.686;2024-01-15T01:34:14;6.40;59.33
78902;DHT22;70441;44.758;37.686;2024-01-15T01:35:16;6.39;59.74
78902;DHT22;70441;44.758;37.686;2024-01-15T01:36:18;6.35;59.60
78902;DHT22;70441;44.758;37.686;2024-01-15T01:37:19;6.39;58.97
78902;DHT22;70441;44.758;37.686;2024-01-15T01:38:21;6.35;58.87
78902;DHT22;70441;44.758;37.686;2024-01-15T01:39:22;6.32;57.89
78902;DHT22;70441;44.758;37.686;2024-01-15T01:40:24;6.38;57.83
78902;DHT22;70441;44.758;37.686;2024-01-15T01:41:43;6.35;57.88
78902;DHT22;70441;44.758;37.686;2024-01-15T01:43:05;6.32;58.36
78902;DHT22;70441;44.758;37.686;2024-01-15T01:44:06;6.32;57.95
78902;DHT22;70441;44.758;37.686;2024-01-15T01:45:08;6.32;58.54
78902;DHT22;70441;44.758;37.686;2024-01-15T01:46:10;6.29;58.88
78902;DHT22;70441;44.758;37.686;2024-01-15T01:47:12;6.24;59.12
78902;DHT22;70441;44.758;37.686;2024-01-15T01:48:14;6.21;59.01
78902;DHT22;70441;44.758;37.686;2024-01-15T01:49:16;6.20;59.51
78902;DHT22;70441;44.758;37.686;2024-01-15T01:50:18;6.20;59.49
78902;DHT22;70441;44.758;37.686;2024-01-15T01:51:21;6.18;59.83
78902;DHT22;70441;44.758;37.686;2024-01-15T01:52:23;6.21;59.58
78902;DHT22;70441;44.758;37.686;2024-01-15T01:53:26;6.22;59.18
78902;DHT22;70441;44.758;37.686;2024-01-15T01:54:29;6.22;59.19
78902;DHT22;70441;44.758;37.686;2024-01-15T01:55:32;6.22;58.91
78902;DHT22;70441;44.758;37.686;2024-01-15T01:56:35;6.22;59.15
78902;DHT22;70441;44.758;37.686;2024-01-15T01:57:37;6.24;58.83
78902;DHT22;70441;44.758;37.686;2024-01-15T01:58:38;6.28;58.72
78902;DHT22;70441;44.758;37.686;2024-01-15T01:59:41;6.32;58.86
78902;DHT22;70441;44.758;37.686;2024-01-15T02:00:43;6.35;59.37
78902;DHT22;70441;44.758;37.686;2024-01-15T02:02:03;6.36;59.46
78902;DHT22;70441;44.758;37.686;2024-01-15T02:03:05;6.40;59.81
78902;DHT22;70441;44.758;37.686;2024-01-15T02:04:06;6.40;59.52
78902;DHT22;70441;44.758;37.686;2024-01-15T02:05:08;6.43;59.51
78902;DHT22;70441;44.758;37.686;2024-01-15T02:06:10;6.45;59.82
78902;DHT22;70441;44.758;37.686;2024-01-15T02:07:11;6.43;59.47
78902;DHT22;70441;44.758;37.686;2024-01-15T02:08:13;6.45;58.61
78902;DHT22;70441;44.758;37.686;2024-01-15T02:09:14;6.46;58.72
78902;DHT22;70441;44.758;37.686;2024-01-15T02:10:16;6.46;58.96
78902;DHT22;70441;44.758;37.686;2024-01-15T02:11:17;6.48;58.90
78902;DHT22;70441;44.758;37.686;2024-01-15T02:12:19;6.52;59.15
78902;DHT22;70441;44.758;37.686;2024-01-15T02:13:20;6.50;59.34
78902;DHT22;70441;44.758;37.686;2024-01-15T02:14:22;6.52;59.17
78902;DHT22;70441;44.758;37.686;2024-01-15T02:15:26;6.57;59.47
78902;DHT22;70441;44.758;37.686;2024-01-15T02:16:28;6.57;59.56
78902;DHT22;70441;44.758;37.686;2024-01-15T02:17:29;6.62;59.04
78902;DHT22;70441;44.758;37.686;2024-01-15T02:18:43;6.62;59.46
78902;DHT22;70441;44.758;37.686;2024-01-15T02:19:44;6.60;59.28
78902;DHT22;70441;44.758;37.686;2024-01-15T02:21:05;6.62;59.53
78902;DHT22;70441;44.758;37.686;2024-01-15T02:22:06;6.66;58.38
78902;DHT22;70441;44.758;37.686;2024-01-15T02:23:10;6.70;57.92
78902;DHT22;70441;44.758;37.686;2024-01-15T02:24:12;6.73;58.34
78902;DHT22;70441;44.758;37.686;2024-01-15T02:25:13;6.74;58.63
78902;DHT22;70441;44.758;37.686;2024-01-15T02:26:15;6.77;58.39
78902;DHT22;70441;44.758;37.686;2024-01-15T02:27:17;6.80;58.40
78902;DHT22;70441;44.758;37.686;2024-01-15T02:28:18;6.79;58.32
78902;DHT22;70441;44.758;37.686;2024-01-15T02:30:40;6.84;58.50
78902;DHT22;70441;44.758;37.686;2024-01-15T02:31:42;6.84;58.68
78902;DHT22;70441;44.758;37.686;2024-01-15T02:32:44;6.85;58.80
78902;DHT22;70441;44.758;37.686;2024-01-15T02:34:05;6.84;59.25
78902;DHT22;70441;44.758;37.686;2024-01-15T02:35:06;6.84;58.58
78902;DHT22;70441;44.758;37.686;2024-01-15T02:36:08;6.85;59.61
78902;DHT22;70441;44.758;37.686;2024-01-15T02:37:10;6.83;59.54
78902;DHT22;70441;44.758;37.686;2024-01-15T02:38:12;6.81;59.20
78902;DHT22;70441;44.758;37.686;2024-01-15T02:39:13;6.83;58.93
78902;DHT22;70441;44.758;37.686;2024-01-15T02:40:15;6.84;59.09
78902;DHT22;70441;44.758;37.686;2024-01-15T02:41:16;6.85;58.87
78902;DHT22;70441;44.758;37.686;2024-01-15T02:42:18;6.87;58.99
78902;DHT22;70441;44.758;37.686;2024-01-15T02:43:20;6.88;59.40
78902;DHT22;70441;44.758;37.686;2024-01-15T02:44:23;6.88;59.22
78902;DHT22;70441;44.758;37.686;2024-01-15T02:45:25;6.88;59.33
78902;DHT22;70441;44.758;37.686;2024-01-15T02:47:46;6.84;59.76
78902;DHT22;70441;44.758;37.686;2024-01-15T02:48:47;6.83;60.07
78902;DHT22;70441;44.758;37.686;2024-01-15T02:49:49;6.84;59.51
78902;DHT22;70441;44.758;37.686;2024-01-15T02:50:50;6.88;59.81
78902;DHT22;70441;44.758;37.686;2024-01-15T02:51:51;6.88;59.92
78902;DHT22;70441;44.758;37.686;2024-01-15T02:54:12;6.92;60.54
78902;DHT22;70441;44.758;37.686;2024-01-15T02:55:14;6.90;60.69
78902;DHT22;70441;44.758;37.686;2024-01-15T02:56:15;6.94;60.93
78902;DHT22;70441;44.758;37.686;2024-01-15T02:57:17;6.91;60.81
78902;DHT22;70441;44.758;37.686;2024-01-15T02:58:18;6.91;61.22
78902;DHT22;70441;44.758;37.686;2024-01-15T02:59:20;6.94;60.97
78902;DHT22;70441;44.758;37.686;2024-01-15T03:00:21;6.97;61.16
78902;DHT22;70441;44.758;37.686;2024-01-15T03:01:22;6.95;61.06
78902;DHT22;70441;44.758;37.686;2024-01-15T03:02:24;6.95;60.83
78902;DHT22;70441;44.758;37.686;2024-01-15T03:03:25;6.94;60.62
78902;DHT22;70441;44.758;37.686;2024-01-15T03:04:27;6.98;60.81
78902;DHT22;70441;44.758;37.686;2024-01-15T03:05:28;6.97;61.11
78902;DHT22;70441;44.758;37.686;2024-01-15T03:06:29;6.98;61.59
78902;DHT22;70441;44.758;37.686;2024-01-15T03:07:31;6.97;61.72
78902;DHT22;70441;44.758;37.686;2024-01-15T03:08:32;6.94;61.63
78902;DHT22;70441;44.758;37.686;2024-01-15T03:09:54;6.94;61.49
78902;DHT22;70441;44.758;37.686;2024-01-15T03:10:55;6.92;61.96
78902;DHT22;70441;44.758;37.686;2024-01-15T03:11:57;6.92;62.27
78902;DHT22;70441;44.758;37.686;2024-01-15T03:12:58;6.91;62.93
78902;DHT22;70441;44.758;37.686;2024-01-15T03:14:00;6.84;62.87
78902;DHT22;70441;44.758;37.686;2024-01-15T03:15:01;6.85;63.31
78902;DHT22;70441;44.758;37.686;2024-01-15T03:16:05;6.83;63.55
78902;DHT22;70441;44.758;37.686;2024-01-15T03:17:25;6.80;63.84
78902;DHT22;70441;44.758;37.686;2024-01-15T03:18:28;6.80;64.14
78902;DHT22;70441;44.758;37.686;2024-01-15T03:19:29;6.79;64.63
78902;DHT22;70441;44.758;37.686;2024-01-15T03:20:31;6.77;65.58
78902;DHT22;70441;44.758;37.686;2024-01-15T03:21:33;6.70;66.53
78902;DHT22;70441;44.758;37.686;2024-01-15T03:22:34;6.64;67.48
78902;DHT22;70441;44.758;37.686;2024-01-15T03:23:35;6.60;67.90
78902;DHT22;70441;44.758;37.686;2024-01-15T03:24:37;6.56;68.69
78902;DHT22;70441;44.758;37.686;2024-01-15T03:25:38;6.50;69.19
78902;DHT22;70441;44.758;37.686;2024-01-15T03:26:40;6.48;69.54
78902;DHT22;70441;44.758;37.686;2024-01-15T03:27:41;6.43;69.96
78902;DHT22;70441;44.758;37.686;2024-01-15T03:29:01;6.35;69.84
78902;DHT22;70441;44.758;37.686;2024-01-15T03:30:03;6.36;69.81
78902;DHT22;70441;44.758;37.686;2024-01-15T03:31:05;6.39;69.36
78902;DHT22;70441;44.758;37.686;2024-01-15T03:32:06;6.35;69.38
78902;DHT22;70441;44.758;37.686;2024-01-15T03:33:08;6.38;69.45
78902;DHT22;70441;44.758;37.686;2024-01-15T03:34:10;6.38;69.38
78902;DHT22;70441;44.758;37.686;2024-01-15T03:35:11;6.39;69.04
78902;DHT22;70441;44.758;37.686;2024-01-15T03:36:13;6.42;68.97
78902;DHT22;70441;44.758;37.686;2024-01-15T03:37:15;6.45;69.12
78902;DHT22;70441;44.758;37.686;2024-01-15T03:38:16;6.46;69.53
78902;DHT22;70441;44.758;37.686;2024-01-15T03:39:36;6.42;70.21
78902;DHT22;70441;44.758;37.686;2024-01-15T03:40:38;6.38;70.75
78902;DHT22;70441;44.758;37.686;2024-01-15T03:41:40;6.38;71.18
78902;DHT22;70441;44.758;37.686;2024-01-15T03:42:42;6.31;71.44
78902;DHT22;70441;44.758;37.686;2024-01-15T03:43:43;6.33;71.60
78902;DHT22;70441;44.758;37.686;2024-01-15T03:44:45;6.29;72.03
78902;DHT22;70441;44.758;37.686;2024-01-15T03:45:47;6.29;72.09
78902;DHT22;70441;44.758;37.686;2024-01-15T03:46:48;6.28;72.19
78902;DHT22;70441;44.758;37.686;2024-01-15T03:47:50;6.26;72.16
78902;DHT22;70441;44.758;37.686;2024-01-15T03:48:52;6.28;72.29
78902;DHT22;70441;44.758;37.686;2024-01-15T03:49:53;6.29;72.52
78902;DHT22;70441;44.758;37.686;2024-01-15T03:50:55;6.26;72.54
78902;DHT22;70441;44.758;37.686;2024-01-15T03:51:57;6.24;72.93
78902;DHT22;70441;44.758;37.686;2024-01-15T03:52:58;6.21;73.64
78902;DHT22;70441;44.758;37.686;2024-01-15T03:54:00;6.20;74.24
78902;DHT22;70441;44.758;37.686;2024-01-15T03:55:03;6.15;74.69
78902;DHT22;70441;44.758;37.686;2024-01-15T03:56:05;6.10;74.98
78902;DHT22;70441;44.758;37.686;2024-01-15T03:57:06;6.05;75.19
78902;DHT22;70441;44.758;37.686;2024-01-15T03:58:08;6.05;75.44
78902;DHT22;70441;44.758;37.686;2024-01-15T03:59:10;6.03;75.68
78902;DHT22;70441;44.758;37.686;2024-01-15T04:00:12;5.97;76.02
78902;DHT22;70441;44.758;37.686;2024-01-15T04:01:13;5.96;76.54
78902;DHT22;70441;44.758;37.686;2024-01-15T04:02:15;5.93;76.85
78902;DHT22;70441;44.758;37.686;2024-01-15T04:03:17;5.90;77.19
78902;DHT22;70441;44.758;37.686;2024-01-15T04:04:18;5.87;77.32
78902;DHT22;70441;44.758;37.686;2024-01-15T04:05:20;5.87;77.62
78902;DHT22;70441;44.758;37.686;2024-01-15T04:06:22;5.85;77.89
78902;DHT22;70441;44.758;37.686;2024-01-15T04:07:42;5.81;78.14
78902;DHT22;70441;44.758;37.686;2024-01-15T04:08:44;5.80;78.37
78902;DHT22;70441;44.758;37.686;2024-01-15T04:09:46;5.81;78.62
78902;DHT22;70441;44.758;37.686;2024-01-15T04:10:47;5.77;78.70
78902;DHT22;70441;44.758;37.686;2024-01-15T04:11:49;5.79;78.84
78902;DHT22;70441;44.758;37.686;2024-01-15T04:12:51;5.77;78.89
78902;DHT22;70441;44.758;37.686;2024-01-15T04:13:52;5.77;79.11
78902;DHT22;70441;44.758;37.686;2024-01-15T04:14:54;5.77;79.36
78902;DHT22;70441;44.758;37.686;2024-01-15T04:15:56;5.76;79.43
78902;DHT22;70441;44.758;37.686;2024-01-15T04:16:57;5.70;79.62
78902;DHT22;70441;44.758;37.686;2024-01-15T04:17:59;5.70;79.91
78902;DHT22;70441;44.758;37.686;2024-01-15T04:19:02;5.69;80.15
78902;DHT22;70441;44.758;37.686;2024-01-15T04:20:05;5.66;80.36
78902;DHT22;70441;44.758;37.686;2024-01-15T04:21:09;5.65;80.45
78902;DHT22;70441;44.758;37.686;2024-01-15T04:22:10;5.59;80.34
78902;DHT22;70441;44.758;37.686;2024-01-15T04:23:12;5.55;80.27
78902;DHT22;70441;44.758;37.686;2024-01-15T04:24:14;5.51;80.40
78902;DHT22;70441;44.758;37.686;2024-01-15T04:25:15;5.48;80.65
78902;DHT22;70441;44.758;37.686;2024-01-15T04:26:17;5.44;81.01
78902;DHT22;70441;44.758;37.686;2024-01-15T04:27:19;5.39;81.31
78902;DHT22;70441;44.758;37.686;2024-01-15T04:28:38;5.39;81.36
78902;DHT22;70441;44.758;37.686;2024-01-15T04:29:40;5.37;81.21
78902;DHT22;70441;44.758;37.686;2024-01-15T04:30:42;5.34;81.19
78902;DHT22;70441;44.758;37.686;2024-01-15T04:32:02;5.30;81.46
78902;DHT22;70441;44.758;37.686;2024-01-15T04:33:04;5.30;81.74
78902;DHT22;70441;44.758;37.686;2024-01-15T04:34:05;5.28;81.90
78902;DHT22;70441;44.758;37.686;2024-01-15T04:35:07;5.27;81.95
78902;DHT22;70441;44.758;37.686;2024-01-15T04:37:28;5.26;82.29
78902;DHT22;70441;44.758;37.686;2024-01-15T04:38:30;5.26;82.55
78902;DHT22;70441;44.758;37.686;2024-01-15T04:39:32;5.24;82.84
78902;DHT22;70441;44.758;37.686;2024-01-15T04:40:33;5.27;83.11
78902;DHT22;70441;44.758;37.686;2024-01-15T04:41:35;5.28;83.23
78902;DHT22;70441;44.758;37.686;2024-01-15T04:42:36;5.30;83.47
78902;DHT22;70441;44.758;37.686;2024-01-15T04:43:38;5.26;83.62
78902;DHT22;70441;44.758;37.686;2024-01-15T04:44:39;5.27;83.92
78902;DHT22;70441;44.758;37.686;2024-01-15T04:45:40;5.28;84.05
78902;DHT22;70441;44.758;37.686;2024-01-15T04:47:00;5.28;84.20
78902;DHT22;70441;44.758;37.686;2024-01-15T04:48:20;5.31;84.47
78902;DHT22;70441;44.758;37.686;2024-01-15T04:49:24;5.34;84.68
78902;DHT22;70441;44.758;37.686;2024-01-15T04:51:48;5.37;84.73
78902;DHT22;70441;44.758;37.686;2024-01-15T04:52:50;5.41;84.71
78902;DHT22;70441;44.758;37.686;2024-01-15T04:53:52;5.39;84.74
78902;DHT22;70441;44.758;37.686;2024-01-15T04:54:53;5.42;84.85
78902;DHT22;70441;44.758;37.686;2024-01-15T04:55:55;5.47;84.98
78902;DHT22;70441;44.758;37.686;2024-01-15T04:56:56;5.51;84.96
78902;DHT22;70441;44.758;37.686;2024-01-15T04:58:16;5.55;85.12
78902;DHT22;70441;44.758;37.686;2024-01-15T04:59:18;5.58;85.17
78902;DHT22;70441;44.758;37.686;2024-01-15T05:00:19;5.60;85.16
78902;DHT22;70441;44.758;37.686;2024-01-15T05:01:39;5.65;85.23
78902;DHT22;70441;44.758;37.686;2024-01-15T05:02:41;5.66;85.19
78902;DHT22;70441;44.758;37.686;2024-01-15T05:03:42;5.67;85.20
78902;DHT22;70441;44.758;37.686;2024-01-15T05:04:44;5.69;85.05
78902;DHT22;70441;44.758;37.686;2024-01-15T05:05:45;5.72;85.04
78902;DHT22;70441;44.758;37.686;2024-01-15T05:07:05;5.77;85.06
78902;DHT22;70441;44.758;37.686;2024-01-15T05:08:07;5.86;84.99
78902;DHT22;70441;44.758;37.686;2024-01-15T05:09:27;5.85;84.74
78902;DHT22;70441;44.758;37.686;2024-01-15T05:10:29;5.86;84.57
78902;DHT22;70441;44.758;37.686;2024-01-15T05:11:49;5.91;84.01
78902;DHT22;70441;44.758;37.686;2024-01-15T05:12:51;5.96;83.57
78902;DHT22;70441;44.758;37.686;2024-01-15T05:13:52;6.00;83.05
78902;DHT22;70441;44.758;37.686;2024-01-15T05:15:12;6.07;81.57
78902;DHT22;70441;44.758;37.686;2024-01-15T05:16:14;6.13;80.53
78902;DHT22;70441;44.758;37.686;2024-01-15T05:17:15;6.18;79.78
78902;DHT22;70441;44.758;37.686;2024-01-15T05:18:17;6.25;79.26
78902;DHT22;70441;44.758;37.686;2024-01-15T05:19:18;6.31;78.90
78902;DHT22;70441;44.758;37.686;2024-01-15T05:20:38;6.38;78.30
78902;DHT22;70441;44.758;37.686;2024-01-15T05:21:58;6.39;77.97
78902;DHT22;70441;44.758;37.686;2024-01-15T05:22:59;6.48;77.65
78902;DHT22;70441;44.758;37.686;2024-01-15T05:24:01;6.50;77.49
78902;DHT22;70441;44.758;37.686;2024-01-15T05:25:06;6.53;77.56
78902;DHT22;70441;44.758;37.686;2024-01-15T05:26:10;6.57;77.65
78902;DHT22;70441;44.758;37.686;2024-01-15T05:27:12;6.57;77.61
78902;DHT22;70441;44.758;37.686;2024-01-15T05:28:14;6.62;77.49
78902;DHT22;70441;44.758;37.686;2024-01-15T05:29:16;6.67;77.37
78902;DHT22;70441;44.758;37.686;2024-01-15T05:30:17;6.67;77.27
78902;DHT22;70441;44.758;37.686;2024-01-15T05:31:19;6.66;77.32
78902;DHT22;70441;44.758;37.686;2024-01-15T05:32:20;6.67;77.26
78902;DHT22;70441;44.758;37.686;2024-01-15T05:33:23;6.72;77.22
78902;DHT22;70441;44.758;37.686;2024-01-15T05:34:24;6.70;76.95
78902;DHT22;70441;44.758;37.686;2024-01-15T05:35:26;6.77;76.80
78902;DHT22;70441;44.758;37.686;2024-01-15T05:36:28;6.81;76.61
78902;DHT22;70441;44.758;37.686;2024-01-15T05:37:29;6.83;76.73
78902;DHT22;70441;44.758;37.686;2024-01-15T05:38:49;6.84;76.87
78902;DHT22;70441;44.758;37.686;2024-01-15T05:39:51;6.91;76.88
78902;DHT22;70441;44.758;37.686;2024-01-15T05:40:52;6.92;76.99
78902;DHT22;70441;44.758;37.686;2024-01-15T05:41:54;6.95;77.11
78902;DHT22;70441;44.758;37.686;2024-01-15T05:44:15;7.05;77.54
78902;DHT22;70441;44.758;37.686;2024-01-15T05:45:17;7.07;77.52
78902;DHT22;70441;44.758;37.686;2024-01-15T05:46:18;7.12;77.58
78902;DHT22;70441;44.758;37.686;2024-01-15T05:47:20;7.11;77.81
78902;DHT22;70441;44.758;37.686;2024-01-15T05:48:21;7.16;77.85
78902;DHT22;70441;44.758;37.686;2024-01-15T05:49:23;7.20;77.98
78902;DHT22;70441;44.758;37.686;2024-01-15T05:50:24;7.19;77.99
78902;DHT22;70441;44.758;37.686;2024-01-15T05:51:26;7.27;77.93
78902;DHT22;70441;44.758;37.686;2024-01-15T05:52:27;7.30;77.58
78902;DHT22;70441;44.758;37.686;2024-01-15T05:53:29;7.34;77.47
78902;DHT22;70441;44.758;37.686;2024-01-15T05:54:30;7.42;77.31
78902;DHT22;70441;44.758;37.686;2024-01-15T05:55:32;7.49;77.06
78902;DHT22;70441;44.758;37.686;2024-01-15T05:56:33;7.53;76.81
78902;DHT22;70441;44.758;37.686;2024-01-15T05:57:34;7.57;76.83
78902;DHT22;70441;44.758;37.686;2024-01-15T05:58:36;7.60;76.72
78902;DHT22;70441;44.758;37.686;2024-01-15T05:59:37;7.64;76.76
78902;DHT22;70441;44.758;37.686;2024-01-15T06:00:39;7.64;76.52
78902;DHT22;70441;44.758;37.686;2024-01-15T06:01:40;7.64;76.24
78902;DHT22;70441;44.758;37.686;2024-01-15T06:04:02;7.67;75.82
78902;DHT22;70441;44.758;37.686;2024-01-15T06:05:03;7.68;74.58
78902;DHT22;70441;44.758;37.686;2024-01-15T06:06:05;7.73;73.16
78902;DHT22;70441;44.758;37.686;2024-01-15T06:07:07;7.70;72.70
78902;DHT22;70441;44.758;37.686;2024-01-15T06:08:08;7.68;71.88
78902;DHT22;70441;44.758;37.686;2024-01-15T06:09:10;7.73;71.33
78902;DHT22;70441;44.758;37.686;2024-01-15T06:10:11;7.74;70.19
78902;DHT22;70441;44.758;37.686;2024-01-15T06:11:13;7.71;69.76
78902;DHT22;70441;44.758;37.686;2024-01-15T06:12:14;7.70;70.19
78902;DHT22;70441;44.758;37.686;2024-01-15T06:13:16;7.71;70.79
78902;DHT22;70441;44.758;37.686;2024-01-15T06:14:17;7.71;71.00
78902;DHT22;70441;44.758;37.686;2024-01-15T06:15:19;7.68;71.43
78902;DHT22;70441;44.758;37.686;2024-01-15T06:16:38;7.70;71.02
78902;DHT22;70441;44.758;37.686;2024-01-15T06:17:40;7.68;71.37
78902;DHT22;70441;44.758;37.686;2024-01-15T06:18:41;7.66;71.60
78902;DHT22;70441;44.758;37.686;2024-01-15T06:21:03;7.67;71.45
78902;DHT22;70441;44.758;37.686;2024-01-15T06:22:05;7.64;71.21
78902;DHT22;70441;44.758;37.686;2024-01-15T06:23:07;7.66;70.75
78902;DHT22;70441;44.758;37.686;2024-01-15T06:24:09;7.68;70.53
78902;DHT22;70441;44.758;37.686;2024-01-15T06:25:11;7.71;71.24
78902;DHT22;70441;44.758;37.686;2024-01-15T06:26:12;7.71;71.81
78902;DHT22;70441;44.758;37.686;2024-01-15T06:27:14;7.68;72.19
78902;DHT22;70441;44.758;37.686;2024-01-15T06:28:15;7.68;72.78
78902;DHT22;70441;44.758;37.686;2024-01-15T06:29:17;7.63;72.89
78902;DHT22;70441;44.758;37.686;2024-01-15T06:30:18;7.60;72.56
78902;DHT22;70441;44.758;37.686;2024-01-15T06:31:20;7.54;72.47
78902;DHT22;70441;44.758;37.686;2024-01-15T06:32:21;7.49;72.55
78902;DHT22;70441;44.758;37.686;2024-01-15T06:33:23;7.51;72.83
78902;DHT22;70441;44.758;37.686;2024-01-15T06:34:24;7.47;72.89
78902;DHT22;70441;44.758;37.686;2024-01-15T06:35:28;7.46;72.22
78902;DHT22;70441;44.758;37.686;2024-01-15T06:36:30;7.42;72.45
78902;DHT22;70441;44.758;37.686;2024-01-15T06:37:32;7.39;71.99
78902;DHT22;70441;44.758;37.686;2024-01-15T06:38:34;7.34;71.96
78902;DHT22;70441;44.758;37.686;2024-01-15T06:39:35;7.34;71.95
78902;DHT22;70441;44.758;37.686;2024-01-15T06:40:37;7.30;71.84
78902;DHT22;70441;44.758;37.686;2024-01-15T06:41:41;7.30;72.06
78902;DHT22;70441;44.758;37.686;2024-01-15T06:42:45;7.25;72.31
78902;DHT22;70441;44.758;37.686;2024-01-15T06:43:48;7.25;72.40
78902;DHT22;70441;44.758;37.686;2024-01-15T06:44:49;7.22;72.54
78902;DHT22;70441;44.758;37.686;2024-01-15T06:46:09;7.23;72.75
78902;DHT22;70441;44.758;37.686;2024-01-15T06:47:11;7.23;72.84
78902;DHT22;70441;44.758;37.686;2024-01-15T06:48:35;7.19;73.02
78902;DHT22;70441;44.758;37.686;2024-01-15T06:49:37;7.20;73.13
78902;DHT22;70441;44.758;37.686;2024-01-15T06:50:38;7.20;73.30
78902;DHT22;70441;44.758;37.686;2024-01-15T06:51:40;7.20;73.29
78902;DHT22;70441;44.758;37.686;2024-01-15T06:52:43;7.19;73.04
78902;DHT22;70441;44.758;37.686;2024-01-15T06:53:44;7.15;72.63
78902;DHT22;70441;44.758;37.686;2024-01-15T06:54:46;7.15;72.33
78902;DHT22;70441;44.758;37.686;2024-01-15T06:55:49;7.14;72.38